Annapolis, WA

5:41 AM PDT on August 20, 2014 (GMT -0700)
Strawberry Hill | Change Station
CLOSE
Current Station
Personal Weather Station
Location: Port Orchard, WA
Elevation: 340 ft
Nearby Weather Stations

Elev 340 ft 47.48 °N, 122.61 °W | Updated 14 seconds ago

Overcast
Overcast
56.1 °F
Feels Like 56.1 °F
N
0.0
Wind Variable Wind from ESE
Gusts 0.0 mph

Today
High -- | Low -- °F
--% Chance of Precip.
Yesterday
High -- | Low -- °F
Precip. -- in
6:13 AM 8:13 PM
Waning Crescent, 22% visible
Pressure 29.94 in
Visibility 10.0 miles
Clouds Overcast 1200 ft
Dew Point 51 °F
Humidity 82%
Rainfall 0.00 in
Snow Depth Not available.
UV 0 out of 12
Pollen 2.70 out of 12
Air Quality Not available.
Flu Activity Not available.
METAR KPWT 201235Z 18008KT 10SM OVC012 13/11 A2994 RMK AO1

More Conditions Fewer Conditions

Pressure 29.94 in
Visibility 10.0 miles
Clouds Overcast 1200 ft
Dew Point 51 °F
Humidity 82%
Rainfall 0.00 in
Snow Depth Not available.
UV 0 out of 12
Pollen 2.70 out of 12
Air Quality Not available.
Flu Activity Not available.
METAR KPWT 201235Z 18008KT 10SM OVC012 13/11 A2994 RMK AO1

More Conditions Fewer Conditions

10-Day Weather Forecast

Almanac

Astronomy

Aug. 20, 2014 Rise Set
Actual Time 6:13 AM PDT 8:13 PM PDT
Civil Twilight 5:40 AM PDT 8:46 PM PDT
Nautical Twilight 4:59 AM PDT 9:27 PM PDT
Astronomical Twilight 4:13 AM PDT 10:12 PM PDT
Moon 1:50 AM PDT 5:09 PM PDT
Length of Visible Light 15h 06m
Length of Day
14h 00m
Tomorrow will be 3m 10s shorter.
Waning Crescent, 22% of the Moon is Illuminated
Today
Waning Crescent
Aug 25
New
Sep 2
First Quarter
Sep 8
Full
Sep 15
Last Quarter

Today's Extremes

State Highs State Lows

Community

WunderPhotos

Upload Photos

1,745,618 photos uploaded!

Nearby

Snow Depth

Station Depth Elevation
Mount Crag 0 in 4050 ft
Dungeness 3 in 4100 ft
Waterhole 1 in 5000 ft
Alpine Meadows 0 in 3500 ft
Burnt Mountain 0 in 4200 ft

Earthquake Activity

City Distance Mag. Time & Date
No recent earthquake activity has been reported nearby.
Minimum magnitude displayed is 2.5.

Coastal Water Temperatures

Place Temperature
Port Townsend, WA 53.1 °F
Seattle, WA 55.9 °F
Friday Harbor, WA 55.0 °F
Tacoma, WA 57.0 °F

Nearby Weather Stations